Time;durP1;ratioP1;P1;durP2;ratioP2;P2;SDS_P1;SDS_P2;PMS_P1;PMS_P2;Temp;Humidity;BMP_temperature;BMP_pressure;BME280_temperature;BME280_humidity;BME280_pressure;Samples;Min_cycle;Max_cycle;Signal;HPM_P1;HPM_P2
2022/10/24 00:04:12;;;;;;;6.80;1.60;;;;;;;;;;10450253;28;20041;-77
2022/10/24 00:09:17;;;;;;;13.93;1.75;;;;;;;;;;10380108;28;20042;-77
2022/10/24 00:14:20;;;;;;;4.32;0.90;;;;;;;;;;10386109;28;20052;-78
2022/10/24 00:19:27;;;;;;;4.57;1.30;;;;;;;;;;10370862;28;20068;-78
2022/10/24 00:24:31;;;;;;;5.28;1.60;;;;;;;;;;10386789;28;20050;-79
2022/10/24 00:29:33;;;;;;;6.47;1.83;;;;;;;;;;10370361;28;20053;-78
2022/10/24 00:34:36;;;;;;;4.28;1.42;;;;;;;;;;10352584;28;20048;-78
2022/10/24 00:39:40;;;;;;;4.10;1.23;;;;;;;;;;10404449;28;20045;-77
2022/10/24 00:44:43;;;;;;;3.92;1.17;;;;;;;;;;10407565;28;20045;-77
2022/10/24 00:49:47;;;;;;;3.33;0.90;;;;;;;;;;10369992;28;20030;-77
2022/10/24 00:54:53;;;;;;;5.05;0.98;;;;;;;;;;10377300;28;20033;-77
2022/10/24 00:59:58;;;;;;;5.47;1.20;;;;;;;;;;10407597;28;20041;-77
2022/10/24 01:05:00;;;;;;;3.60;0.47;;;;;;;;;;10429323;28;20407;-75
2022/10/24 01:10:11;;;;;;;3.42;1.30;;;;;;;;;;10445808;28;20091;-78
2022/10/24 01:15:17;;;;;;;3.22;0.95;;;;;;;;;;10439730;28;20572;-78
2022/10/24 01:20:29;;;;;;;3.08;1.70;;;;;;;;;;10451382;28;20184;-78
2022/10/24 01:25:41;;;;;;;7.70;1.33;;;;;;;;;;10430284;28;20110;-78
2022/10/24 01:30:45;;;;;;;9.15;2.15;;;;;;;;;;10426329;28;20041;-76
2022/10/24 01:35:51;;;;;;;5.40;1.65;;;;;;;;;;10420787;28;20113;-78
2022/10/24 01:40:56;;;;;;;3.42;1.08;;;;;;;;;;10441997;28;20576;-77
2022/10/24 01:46:03;;;;;;;4.63;1.60;;;;;;;;;;10432928;28;20037;-76
2022/10/24 01:51:07;;;;;;;3.20;1.33;;;;;;;;;;10448900;28;20049;-77
2022/10/24 01:56:10;;;;;;;6.65;1.38;;;;;;;;;;10429652;28;20041;-77
2022/10/24 02:01:13;;;;;;;;;;;;;;;;;;10420462;28;20041;-77
2022/10/24 02:06:19;;;;;;;7.78;1.20;;;;;;;;;;10417066;28;19925;-77
2022/10/24 02:11:21;;;;;;;2.60;1.00;;;;;;;;;;10419479;28;20049;-78
2022/10/24 02:16:24;;;;;;;2.33;0.93;;;;;;;;;;10424190;28;20056;-77
2022/10/24 02:21:29;;;;;;;5.75;1.38;;;;;;;;;;10458257;28;20088;-78
2022/10/24 02:26:34;;;;;;;1.90;0.73;;;;;;;;;;10446463;28;20127;-78
2022/10/24 02:31:39;;;;;;;2.00;0.60;;;;;;;;;;10438132;28;20461;-77
2022/10/24 02:36:44;;;;;;;5.07;1.23;;;;;;;;;;10419710;28;20123;-78
2022/10/24 02:41:48;;;;;;;3.97;1.30;;;;;;;;;;10448702;28;20086;-78
2022/10/24 02:46:52;;;;;;;8.52;1.33;;;;;;;;;;10440129;28;20903;-79
2022/10/24 02:51:56;;;;;;;4.00;0.90;;;;;;;;;;10457253;28;20402;-78
2022/10/24 02:57:08;;;;;;;;;;;;;;;;;;10419839;28;20139;-78
2022/10/24 03:02:11;;;;;;;7.57;1.55;;;;;;;;;;10424899;28;20328;-78
2022/10/24 03:07:15;;;;;;;5.50;1.15;;;;;;;;;;10421997;28;20091;-78
2022/10/24 03:12:18;;;;;;;6.78;1.33;;;;;;;;;;10456033;28;20044;-78
2022/10/24 03:17:22;;;;;;;4.03;1.52;;;;;;;;;;10436149;28;20474;-78
2022/10/24 03:22:25;;;;;;;5.40;1.60;;;;;;;;;;10455411;28;20032;-78
2022/10/24 03:27:32;;;;;;;5.40;1.20;;;;;;;;;;10425835;28;20053;-78
2022/10/24 03:32:35;;;;;;;1.83;0.87;;;;;;;;;;10440989;28;20091;-78
2022/10/24 03:37:39;;;;;;;4.00;1.60;;;;;;;;;;10407822;28;20046;-79
2022/10/24 03:42:41;;;;;;;5.57;1.30;;;;;;;;;;10408610;28;20095;-78
2022/10/24 03:47:45;;;;;;;2.70;1.33;;;;;;;;;;10416393;28;20044;-79
2022/10/24 03:52:48;;;;;;;5.45;1.25;;;;;;;;;;10446095;28;20076;-79
2022/10/24 03:57:51;;;;;;;9.20;1.52;;;;;;;;;;10423917;28;20086;-79
2022/10/24 04:02:54;;;;;;;5.15;1.60;;;;;;;;;;10419767;28;20046;-78
2022/10/24 04:07:58;;;;;;;6.90;1.50;;;;;;;;;;10429224;28;20076;-78
2022/10/24 04:13:01;;;;;;;6.05;1.50;;;;;;;;;;10456618;28;20090;-78
2022/10/24 04:18:04;;;;;;;4.53;1.30;;;;;;;;;;10435876;28;20346;-78
2022/10/24 04:23:08;;;;;;;3.85;1.23;;;;;;;;;;10453903;28;20045;-78
2022/10/24 04:28:11;;;;;;;5.35;1.42;;;;;;;;;;10433899;28;20125;-78
2022/10/24 04:33:13;;;;;;;4.75;1.38;;;;;;;;;;10434055;28;20045;-78
2022/10/24 04:38:17;;;;;;;8.93;1.35;;;;;;;;;;10426988;28;20099;-78
2022/10/24 04:43:21;;;;;;;2.90;0.98;;;;;;;;;;10452108;28;20041;-78
2022/10/24 04:48:24;;;;;;;11.70;1.88;;;;;;;;;;10434581;28;20114;-78
2022/10/24 04:53:28;;;;;;;4.40;1.50;;;;;;;;;;10443345;28;20057;-77
2022/10/24 04:58:30;;;;;;;6.03;1.55;;;;;;;;;;10410203;28;20045;-79
2022/10/24 05:03:33;;;;;;;9.88;1.80;;;;;;;;;;10412634;28;20518;-78
2022/10/24 05:08:37;;;;;;;7.55;1.80;;;;;;;;;;10435834;28;20490;-78
2022/10/24 05:13:40;;;;;;;;;;;;;;;;;;10427625;28;20148;-79
2022/10/24 05:18:42;;;;;;;8.35;2.08;;;;;;;;;;10420206;28;19924;-79
2022/10/24 05:23:46;;;;;;;8.85;2.47;;;;;;;;;;10421240;28;20041;-80
2022/10/24 05:28:48;;;;;;;;;;;;;;;;;;10430929;28;20045;-78
2022/10/24 05:33:53;;;;;;;6.07;2.42;;;;;;;;;;10430895;28;19921;-79
2022/10/24 05:38:57;;;;;;;6.72;1.65;;;;;;;;;;10420572;28;20094;-79
2022/10/24 05:43:59;;;;;;;;;;;;;;;;;;10450956;28;20045;-78
2022/10/24 05:49:02;;;;;;;4.10;1.42;;;;;;;;;;10432079;28;19944;-80
2022/10/24 05:54:06;;;;;;;8.02;2.78;;;;;;;;;;10445758;28;20565;-80
2022/10/24 05:59:09;;;;;;;4.95;1.83;;;;;;;;;;10409832;28;20049;-80
2022/10/24 06:04:12;;;;;;;4.10;2.10;;;;;;;;;;10412106;28;20072;-78
2022/10/24 06:09:16;;;;;;;2.97;1.00;;;;;;;;;;10430010;28;20099;-77
2022/10/24 06:14:21;;;;;;;3.58;1.55;;;;;;;;;;10441248;28;20100;-78
2022/10/24 06:19:24;;;;;;;3.58;1.50;;;;;;;;;;10441446;28;20095;-78
2022/10/24 06:24:28;;;;;;;6.25;1.98;;;;;;;;;;10428539;28;20049;-79
2022/10/24 06:29:30;;;;;;;7.53;2.53;;;;;;;;;;10425450;28;20038;-79
2022/10/24 06:34:34;;;;;;;4.45;1.67;;;;;;;;;;10409762;28;20191;-79
2022/10/24 06:39:38;;;;;;;4.40;1.38;;;;;;;;;;10389545;28;20137;-79
2022/10/24 06:44:40;;;;;;;5.72;1.60;;;;;;;;;;10415222;28;20045;-79
2022/10/24 06:49:43;;;;;;;12.03;2.07;;;;;;;;;;10444404;28;20514;-78
2022/10/24 06:54:48;;;;;;;4.30;1.13;;;;;;;;;;10448779;28;20380;-78
2022/10/24 06:59:51;;;;;;;11.73;2.00;;;;;;;;;;10424960;28;20105;-79
2022/10/24 07:04:54;;;;;;;10.15;1.98;;;;;;;;;;10418879;28;20056;-78
2022/10/24 07:09:58;;;;;;;3.70;1.65;;;;;;;;;;10439652;28;20080;-78
2022/10/24 07:15:01;;;;;;;9.68;2.30;;;;;;;;;;10429493;28;20063;-78
2022/10/24 07:20:04;;;;;;;5.55;2.03;;;;;;;;;;10450524;28;20083;-79
2022/10/24 07:25:09;;;;;;;3.43;1.10;;;;;;;;;;10440783;28;20033;-78
2022/10/24 07:30:15;;;;;;;7.07;1.85;;;;;;;;;;10432883;28;20560;-78
2022/10/24 07:35:18;;;;;;;5.97;2.03;;;;;;;;;;10420005;28;20065;-78
2022/10/24 07:40:22;;;;;;;8.50;2.70;;;;;;;;;;10413383;28;20116;-78
2022/10/24 07:45:26;;;;;;;6.55;1.70;;;;;;;;;;10419100;28;20053;-78
2022/10/24 07:50:29;;;;;;;12.32;3.20;;;;;;;;;;10455314;28;20115;-78
2022/10/24 07:55:33;;;;;;;6.88;2.55;;;;;;;;;;10422712;28;20041;-78
2022/10/24 08:00:35;;;;;;;;;;;;;;;;;;10414949;28;20041;-78
2022/10/24 08:05:41;;;;;;;5.00;1.67;;;;;;;;;;10413556;28;19921;-78
2022/10/24 08:10:45;;;;;;;4.75;1.75;;;;;;;;;;10445930;28;20490;-78
2022/10/24 08:15:48;;;;;;;10.60;3.03;;;;;;;;;;10435748;28;20487;-78
2022/10/24 08:20:58;;;;;;;12.15;2.08;;;;;;;;;;10449480;28;20094;-78
2022/10/24 08:26:03;;;;;;;7.45;1.92;;;;;;;;;;10443443;28;20053;-77
2022/10/24 08:31:07;;;;;;;4.47;1.63;;;;;;;;;;10428833;28;20041;-78
2022/10/24 08:36:13;;;;;;;6.50;1.80;;;;;;;;;;10422255;28;20041;-78
2022/10/24 08:41:21;;;;;;;9.95;2.47;;;;;;;;;;10451568;28;20041;-78
2022/10/24 08:46:32;;;;;;;7.07;2.70;;;;;;;;;;10441841;28;20118;-78
2022/10/24 08:51:39;;;;;;;7.13;3.63;;;;;;;;;;10452505;28;20037;-79
2022/10/24 08:56:43;;;;;;;9.27;2.92;;;;;;;;;;10421881;28;20045;-79
2022/10/24 09:01:48;;;;;;;6.45;2.35;;;;;;;;;;10420949;28;20045;-79
2022/10/24 09:06:52;;;;;;;7.32;2.60;;;;;;;;;;10417168;28;20128;-78
2022/10/24 09:11:57;;;;;;;8.38;2.67;;;;;;;;;;10425305;28;20098;-78
2022/10/24 09:17:01;;;;;;;7.78;2.70;;;;;;;;;;10424564;28;20070;-79
2022/10/24 09:22:05;;;;;;;3.05;0.80;;;;;;;;;;10450727;28;20133;-78
2022/10/24 09:27:12;;;;;;;8.35;3.10;;;;;;;;;;10415375;28;20092;-78
2022/10/24 09:32:17;;;;;;;7.32;1.73;;;;;;;;;;10407665;28;20091;-78
2022/10/24 09:37:34;;;;;;;6.40;2.47;;;;;;;;;;10405109;28;20076;-78
2022/10/24 09:42:52;;;;;;;11.18;2.60;;;;;;;;;;10409534;28;20041;-78
2022/10/24 09:47:55;;;;;;;8.32;2.33;;;;;;;;;;10412251;28;20407;-79
2022/10/24 09:52:59;;;;;;;4.10;1.88;;;;;;;;;;10447743;28;20049;-79
2022/10/24 09:58:04;;;;;;;6.30;2.15;;;;;;;;;;10425588;28;20033;-78
2022/10/24 10:03:20;;;;;;;10.68;2.30;;;;;;;;;;10412045;28;20128;-79
2022/10/24 10:08:27;;;;;;;7.78;3.22;;;;;;;;;;10426468;28;20472;-78
2022/10/24 10:13:36;;;;;;;8.07;2.40;;;;;;;;;;10461160;28;20045;-78
2022/10/24 10:18:45;;;;;;;8.35;2.63;;;;;;;;;;10436523;28;20079;-79
2022/10/24 10:23:48;;;;;;;6.38;2.40;;;;;;;;;;10457270;28;20415;-78
2022/10/24 10:28:51;;;;;;;;;;;;;;;;;;10429533;28;20474;-79
2022/10/24 10:34:02;;;;;;;5.45;2.25;;;;;;;;;;10437408;28;20016;-78
2022/10/24 10:39:18;;;;;;;5.88;1.63;;;;;;;;;;10437845;28;20122;-78
2022/10/24 10:44:26;;;;;;;5.80;2.35;;;;;;;;;;10449689;28;20193;-78
2022/10/24 10:49:31;;;;;;;12.68;2.50;;;;;;;;;;10449364;28;20049;-78
2022/10/24 10:54:43;;;;;;;4.65;2.30;;;;;;;;;;10436272;28;20041;-78
2022/10/24 10:59:51;;;;;;;6.68;2.17;;;;;;;;;;10418548;28;20052;-79
2022/10/24 11:05:01;;;;;;;20.35;7.15;;;;;;;;;;10414854;28;20132;-78
2022/10/24 11:10:07;;;;;;;11.70;2.45;;;;;;;;;;10436481;28;20056;-77
2022/10/24 11:15:15;;;;;;;2.97;1.10;;;;;;;;;;10455867;28;20041;-78
2022/10/24 11:20:21;;;;;;;6.10;1.55;;;;;;;;;;10434555;28;20475;-78
2022/10/24 11:25:25;;;;;;;8.10;1.48;;;;;;;;;;10446239;28;20048;-78
2022/10/24 11:30:37;;;;;;;4.78;1.60;;;;;;;;;;10431525;28;20098;-77
2022/10/24 11:36:00;;;;;;;2.97;1.33;;;;;;;;;;10421681;28;20128;-78
2022/10/24 11:41:15;;;;;;;3.30;1.13;;;;;;;;;;10442735;28;20037;-77
2022/10/24 11:46:20;;;;;;;5.18;1.90;;;;;;;;;;10431307;28;20458;-78
2022/10/24 11:51:27;;;;;;;6.55;2.15;;;;;;;;;;10372040;28;20427;-78
2022/10/24 11:56:34;;;;;;;5.10;1.55;;;;;;;;;;10426495;28;20339;-79
2022/10/24 12:01:47;;;;;;;7.55;1.83;;;;;;;;;;10417358;28;20045;-78
2022/10/24 12:07:19;;;;;;;4.50;2.10;;;;;;;;;;10408828;28;20045;-79
2022/10/24 12:12:34;;;;;;;8.30;1.95;;;;;;;;;;10404688;28;20107;-79
2022/10/24 12:17:55;;;;;;;7.40;2.20;;;;;;;;;;10431823;28;20120;-79
2022/10/24 12:23:04;;;;;;;9.45;1.88;;;;;;;;;;10454316;28;20041;-77
2022/10/24 12:28:19;;;;;;;3.78;1.58;;;;;;;;;;10427649;28;20220;-78
2022/10/24 12:33:24;;;;;;;9.70;2.83;;;;;;;;;;10415249;28;20063;-78
2022/10/24 12:38:42;;;;;;;5.75;1.27;;;;;;;;;;10434201;28;20046;-78
2022/10/24 12:43:47;;;;;;;8.63;2.03;;;;;;;;;;10449777;28;20275;-77
2022/10/24 12:49:05;;;;;;;6.65;2.03;;;;;;;;;;10415784;28;20509;-78
2022/10/24 12:54:15;;;;;;;3.67;1.38;;;;;;;;;;10450113;28;20474;-78
2022/10/24 12:59:21;;;;;;;9.63;2.13;;;;;;;;;;10416505;28;20485;-78
2022/10/24 13:04:23;;;;;;;8.35;2.45;;;;;;;;;;10449626;28;20029;-78
2022/10/24 13:09:33;;;;;;;7.03;1.57;;;;;;;;;;10433788;28;20498;-78
2022/10/24 13:14:54;;;;;;;3.25;1.40;;;;;;;;;;10450974;28;20376;-78
2022/10/24 13:20:06;;;;;;;6.00;2.20;;;;;;;;;;10405714;28;20059;-78
2022/10/24 13:25:20;;;;;;;4.28;1.80;;;;;;;;;;10424241;28;20087;-78
2022/10/24 13:30:24;;;;;;;11.13;2.75;;;;;;;;;;10433683;28;20068;-78
2022/10/24 13:35:31;;;;;;;8.35;1.70;;;;;;;;;;10421631;28;20042;-78
2022/10/24 13:40:33;;;;;;;2.88;1.08;;;;;;;;;;10431625;28;20114;-79
2022/10/24 13:45:41;;;;;;;7.63;2.10;;;;;;;;;;10437535;28;20086;-78
2022/10/24 13:50:50;;;;;;;5.72;1.85;;;;;;;;;;10445799;28;20049;-78
2022/10/24 13:55:53;;;;;;;5.93;2.17;;;;;;;;;;10425112;28;20449;-78
2022/10/24 14:00:57;;;;;;;4.23;1.80;;;;;;;;;;10412270;28;20045;-78
2022/10/24 14:06:02;;;;;;;5.57;1.52;;;;;;;;;;10408744;28;20041;-77
2022/10/24 14:11:07;;;;;;;7.03;1.48;;;;;;;;;;10440715;28;20486;-78
2022/10/24 14:16:10;;;;;;;8.32;2.20;;;;;;;;;;10417604;28;20498;-78
2022/10/24 14:21:18;;;;;;;6.78;1.63;;;;;;;;;;10444677;28;20126;-79
2022/10/24 14:26:24;;;;;;;3.55;2.22;;;;;;;;;;10428752;28;20049;-79
2022/10/24 14:31:29;;;;;;;4.00;2.40;;;;;;;;;;10434123;28;20045;-78
2022/10/24 14:36:35;;;;;;;5.38;1.85;;;;;;;;;;10418778;28;20053;-79
2022/10/24 14:41:39;;;;;;;5.00;2.10;;;;;;;;;;10432123;28;20041;-79
2022/10/24 14:46:42;;;;;;;2.80;1.35;;;;;;;;;;10436291;28;20040;-79
2022/10/24 14:51:47;;;;;;;4.90;1.95;;;;;;;;;;10442856;28;20084;-79
2022/10/24 14:56:52;;;;;;;4.43;1.70;;;;;;;;;;10409099;28;20403;-78
2022/10/24 15:01:56;;;;;;;8.95;1.42;;;;;;;;;;10414972;28;20046;-79
2022/10/24 15:07:13;;;;;;;5.28;1.80;;;;;;;;;;10418922;28;20037;-79
2022/10/24 15:12:23;;;;;;;3.25;1.75;;;;;;;;;;10456252;28;20033;-79
2022/10/24 15:17:28;;;;;;;3.42;1.40;;;;;;;;;;10436140;28;20391;-78
2022/10/24 15:22:47;;;;;;;3.72;1.38;;;;;;;;;;10447476;28;20033;-77
2022/10/24 15:27:50;;;;;;;3.95;1.30;;;;;;;;;;10405080;28;20464;-78
2022/10/24 15:32:54;;;;;;;1.08;0.70;;;;;;;;;;10409870;28;20036;-78
2022/10/24 15:37:58;;;;;;;4.63;2.03;;;;;;;;;;10421394;28;20053;-79
2022/10/24 15:43:01;;;;;;;4.43;1.40;;;;;;;;;;10452874;28;20048;-78
2022/10/24 15:48:04;;;;;;;1.27;1.00;;;;;;;;;;10443785;28;20071;-79
2022/10/24 15:53:14;;;;;;;1.40;1.20;;;;;;;;;;10455708;28;20043;-78
2022/10/24 15:58:17;;;;;;;3.55;0.73;;;;;;;;;;10433476;28;20083;-78
2022/10/24 16:03:21;;;;;;;2.25;1.05;;;;;;;;;;10436755;28;20041;-79
2022/10/24 16:08:24;;;;;;;;;;;;;;;;;;10430908;28;20090;-78
2022/10/24 16:13:28;;;;;;;2.65;1.02;;;;;;;;;;10449156;28;20383;-78
2022/10/24 16:18:31;;;;;;;1.77;0.90;;;;;;;;;;10453716;28;20518;-78
2022/10/24 16:23:33;;;;;;;0.52;0.50;;;;;;;;;;10414423;28;20573;-79
2022/10/24 16:28:37;;;;;;;3.28;1.10;;;;;;;;;;10417755;28;20052;-79
2022/10/24 16:33:40;;;;;;;1.90;0.90;;;;;;;;;;10407228;28;20041;-78
2022/10/24 16:38:44;;;;;;;4.03;1.73;;;;;;;;;;10439056;28;20102;-78
2022/10/24 16:43:48;;;;;;;2.05;1.50;;;;;;;;;;10433524;28;20445;-78
2022/10/24 16:48:52;;;;;;;2.90;1.05;;;;;;;;;;10436401;28;20102;-78
2022/10/24 16:53:55;;;;;;;3.42;1.42;;;;;;;;;;10418082;28;20065;-79
2022/10/24 16:58:59;;;;;;;2.77;1.63;;;;;;;;;;10412824;28;20450;-79
2022/10/24 17:04:02;;;;;;;;;;;;;;;;;;10396586;28;20041;-79
2022/10/24 17:09:05;;;;;;;2.08;1.30;;;;;;;;;;10408874;28;19928;-79
2022/10/24 17:14:09;;;;;;;4.20;1.25;;;;;;;;;;10414805;28;20061;-79
2022/10/24 17:19:12;;;;;;;3.33;1.60;;;;;;;;;;10428705;28;20329;-80
2022/10/24 17:24:19;;;;;;;4.93;1.40;;;;;;;;;;10413954;28;20060;-79
2022/10/24 17:29:25;;;;;;;1.55;1.02;;;;;;;;;;10411649;28;20526;-80
2022/10/24 17:34:28;;;;;;;4.57;1.55;;;;;;;;;;10420386;28;20045;-79
2022/10/24 17:39:32;;;;;;;4.20;2.50;;;;;;;;;;10425160;28;20049;-79
2022/10/24 17:44:41;;;;;;;4.20;1.92;;;;;;;;;;10406220;28;20069;-81
2022/10/24 17:49:44;;;;;;;3.95;1.42;;;;;;;;;;10413212;28;20477;-80
2022/10/24 17:54:47;;;;;;;4.78;1.55;;;;;;;;;;10412169;28;20403;-80
2022/10/24 17:59:51;;;;;;;3.20;1.30;;;;;;;;;;10417374;28;20414;-79
2022/10/24 18:04:53;;;;;;;2.90;1.40;;;;;;;;;;10402304;28;20098;-79
2022/10/24 18:09:59;;;;;;;3.92;1.40;;;;;;;;;;10419716;28;20430;-80
2022/10/24 18:15:03;;;;;;;4.70;0.98;;;;;;;;;;10409251;28;20049;-81
2022/10/24 18:20:07;;;;;;;2.33;1.67;;;;;;;;;;10407538;28;20523;-80
2022/10/24 18:25:10;;;;;;;1.33;0.95;;;;;;;;;;10419830;28;20038;-81
2022/10/24 18:30:14;;;;;;;3.10;1.17;;;;;;;;;;10398511;28;20050;-81
2022/10/24 18:35:16;;;;;;;;;;;;;;;;;;10420662;28;20030;-81
2022/10/24 18:40:19;;;;;;;2.42;1.20;;;;;;;;;;10410006;28;20615;-81
2022/10/24 18:45:24;;;;;;;3.87;1.37;;;;;;;;;;10417997;28;20057;-80
2022/10/24 18:50:29;;;;;;;3.10;1.45;;;;;;;;;;10439740;28;20091;-81
2022/10/24 18:55:33;;;;;;;1.30;1.05;;;;;;;;;;10448453;28;20292;-79
2022/10/24 19:00:36;;;;;;;;;;;;;;;;;;10425767;28;20049;-81
2022/10/24 19:05:43;;;;;;;2.35;1.30;;;;;;;;;;10422219;28;19952;-79
2022/10/24 19:10:45;;;;;;;3.72;1.60;;;;;;;;;;10452406;28;20045;-81
2022/10/24 19:15:51;;;;;;;2.23;1.53;;;;;;;;;;10443523;28;20390;-80
2022/10/24 19:20:55;;;;;;;3.28;1.70;;;;;;;;;;10463734;28;20138;-80
2022/10/24 19:25:57;;;;;;;;;;;;;;;;;;10449449;28;20060;-81
2022/10/24 19:31:00;;;;;;;4.03;1.38;;;;;;;;;;10432276;28;19983;-81
2022/10/24 19:36:04;;;;;;;3.40;1.60;;;;;;;;;;10426933;28;20045;-79
2022/10/24 19:41:07;;;;;;;3.90;1.70;;;;;;;;;;10475045;28;20049;-81
2022/10/24 19:46:10;;;;;;;2.03;1.30;;;;;;;;;;10472317;28;20021;-81
2022/10/24 19:51:24;;;;;;;4.35;1.40;;;;;;;;;;10489405;28;20037;-78
2022/10/24 19:56:27;;;;;;;4.18;1.50;;;;;;;;;;10473729;28;20049;-79
2022/10/24 20:01:30;;;;;;;;;;;;;;;;;;10465948;28;20062;-80
2022/10/24 20:06:34;;;;;;;3.25;1.50;;;;;;;;;;10446537;28;19934;-80
2022/10/24 20:11:37;;;;;;;1.15;0.73;;;;;;;;;;10478320;28;20055;-80
2022/10/24 20:16:40;;;;;;;2.80;1.35;;;;;;;;;;10470163;28;20140;-79
2022/10/24 20:21:43;;;;;;;2.55;1.10;;;;;;;;;;10462783;28;20100;-81
2022/10/24 20:26:46;;;;;;;4.90;1.65;;;;;;;;;;10427691;28;20037;-80
2022/10/24 20:31:48;;;;;;;1.40;0.82;;;;;;;;;;10409342;28;20045;-81
2022/10/24 20:36:52;;;;;;;3.03;1.20;;;;;;;;;;10441778;28;20044;-80
2022/10/24 20:41:55;;;;;;;;;;;;;;;;;;10442149;28;20056;-80
2022/10/24 20:47:02;;;;;;;2.60;0.65;;;;;;;;;;10427288;28;20326;-80
2022/10/24 20:52:06;;;;;;;3.13;1.60;;;;;;;;;;10434883;28;20147;-79
2022/10/24 20:57:09;;;;;;;2.22;1.40;;;;;;;;;;10432203;28;20128;-80
2022/10/24 21:02:11;;;;;;;2.15;0.85;;;;;;;;;;10420148;28;20423;-79
2022/10/24 21:07:15;;;;;;;1.48;0.73;;;;;;;;;;10417097;28;20037;-80
2022/10/24 21:12:18;;;;;;;2.95;1.02;;;;;;;;;;10416944;28;20037;-80
2022/10/24 21:17:21;;;;;;;0.95;0.75;;;;;;;;;;10414045;28;20049;-81
2022/10/24 21:22:27;;;;;;;3.10;1.33;;;;;;;;;;10443082;28;20563;-81
2022/10/24 21:27:30;;;;;;;3.10;1.23;;;;;;;;;;10424540;28;20049;-81
2022/10/24 21:32:33;;;;;;;4.25;1.35;;;;;;;;;;10437214;28;20518;-81
2022/10/24 21:37:37;;;;;;;3.83;0.88;;;;;;;;;;10425703;28;20398;-82
2022/10/24 21:42:39;;;;;;;;;;;;;;;;;;10434654;28;20454;-82
2022/10/24 21:47:42;;;;;;;1.45;0.82;;;;;;;;;;10438596;28;19921;-82
2022/10/24 21:52:46;;;;;;;0.40;0.32;;;;;;;;;;10445679;28;20033;-82
2022/10/24 21:57:49;;;;;;;0.20;0.20;;;;;;;;;;10433468;28;20041;-82
2022/10/24 22:02:52;;;;;;;0.80;0.60;;;;;;;;;;10415167;28;20041;-82
2022/10/24 22:07:56;;;;;;;1.98;0.82;;;;;;;;;;10411996;28;20048;-82
2022/10/24 22:12:58;;;;;;;3.65;0.82;;;;;;;;;;10411499;28;20053;-81
2022/10/24 22:18:01;;;;;;;2.85;0.90;;;;;;;;;;10437501;28;20037;-82
2022/10/24 22:23:04;;;;;;;0.75;0.73;;;;;;;;;;10452144;28;20052;-83
2022/10/24 22:28:07;;;;;;;2.25;0.80;;;;;;;;;;10445864;28;20044;-83
2022/10/24 22:33:15;;;;;;;1.42;0.70;;;;;;;;;;10444562;28;20471;-84
2022/10/24 22:38:20;;;;;;;1.17;0.80;;;;;;;;;;10430119;28;20049;-83
2022/10/24 22:43:22;;;;;;;1.15;0.70;;;;;;;;;;10436441;28;20073;-83
2022/10/24 22:48:29;;;;;;;2.05;1.05;;;;;;;;;;10433740;28;20095;-83
2022/10/24 22:53:34;;;;;;;1.45;0.70;;;;;;;;;;10454616;28;20498;-83
2022/10/24 22:58:36;;;;;;;1.88;1.20;;;;;;;;;;10439127;28;20045;-82
2022/10/24 23:03:43;;;;;;;1.50;1.00;;;;;;;;;;10418109;28;20045;-82
2022/10/24 23:08:47;;;;;;;1.50;0.90;;;;;;;;;;10442583;28;20047;-82
2022/10/24 23:13:49;;;;;;;0.68;0.50;;;;;;;;;;10479756;28;20049;-82
2022/10/24 23:18:52;;;;;;;1.52;1.00;;;;;;;;;;10455848;28;20106;-82
2022/10/24 23:23:56;;;;;;;2.05;1.20;;;;;;;;;;10448485;28;20068;-82
2022/10/24 23:28:59;;;;;;;;;;;;;;;;;;10422279;28;20045;-83
2022/10/24 23:34:02;;;;;;;0.98;0.68;;;;;;;;;;10436534;28;19921;-83
2022/10/24 23:39:06;;;;;;;2.72;1.30;;;;;;;;;;10428723;28;20037;-83
2022/10/24 23:44:10;;;;;;;2.58;1.33;;;;;;;;;;10427387;28;20129;-83
2022/10/24 23:49:18;;;;;;;3.17;1.38;;;;;;;;;;10432131;28;20111;-83
2022/10/24 23:54:24;;;;;;;2.63;1.40;;;;;;;;;;10457267;28;20112;-83
2022/10/24 23:59:27;;;;;;;2.08;1.20;;;;;;;;;;10432855;28;20418;-81
